Time;durP1;ratioP1;P1;durP2;ratioP2;P2;SDS_P1;SDS_P2;PMS_P1;PMS_P2;Temp;Humidity;BMP_temperature;BMP_pressure;BME280_temperature;BME280_humidity;BME280_pressure;Samples;Min_cycle;Max_cycle;Signal;HPM_P1;HPM_P2
2022/03/26 00:00:16;;;;;;;42.22;18.88;;;13.00;60.50;;;;;;5099158;28;20032;-71
2022/03/26 00:02:43;;;;;;;45.30;18.42;;;12.90;60.50;;;;;;5101721;28;20031;-71
2022/03/26 00:05:09;;;;;;;48.55;17.48;;;12.90;60.50;;;;;;5113006;27;20043;-71
2022/03/26 00:07:34;;;;;;;42.08;17.70;;;12.90;60.60;;;;;;5101029;28;20042;-72
2022/03/26 00:10:00;;;;;;;37.97;17.05;;;12.90;60.60;;;;;;5095268;28;20036;-71
2022/03/26 00:12:26;;;;;;;45.92;18.88;;;12.90;60.70;;;;;;5094137;28;20024;-72
2022/03/26 00:14:51;;;;;;;42.15;18.38;;;12.90;60.70;;;;;;5105069;28;20427;-71
2022/03/26 00:17:17;;;;;;;46.05;18.48;;;12.90;60.80;;;;;;5098647;28;20042;-71
2022/03/26 00:19:43;;;;;;;49.42;18.27;;;12.90;60.80;;;;;;5109309;27;20027;-71
2022/03/26 00:22:08;;;;;;;41.90;18.58;;;12.90;60.70;;;;;;5100295;28;20495;-71
2022/03/26 00:24:34;;;;;;;47.35;17.95;;;12.90;60.70;;;;;;5098965;28;20024;-72
2022/03/26 00:26:59;;;;;;;45.00;18.23;;;12.90;60.70;;;;;;5100361;28;20074;-72
2022/03/26 00:29:25;;;;;;;37.88;17.60;;;12.90;60.70;;;;;;5099314;28;20480;-72
2022/03/26 00:31:51;;;;;;;36.33;16.85;;;12.90;60.80;;;;;;5078855;28;20058;-72
2022/03/26 00:34:16;;;;;;;46.10;18.85;;;12.90;60.80;;;;;;5104079;27;20410;-71
2022/03/26 00:36:42;;;;;;;47.03;17.83;;;12.90;60.80;;;;;;5097520;28;20157;-72
2022/03/26 00:39:08;;;;;;;44.17;19.33;;;12.90;60.70;;;;;;5099660;28;20027;-72
2022/03/26 00:41:34;;;;;;;42.70;18.63;;;12.90;60.80;;;;;;5098515;28;20046;-71
2022/03/26 00:44:01;;;;;;;42.60;19.30;;;12.80;60.80;;;;;;5101649;28;20354;-71
2022/03/26 00:46:27;;;;;;;44.10;18.58;;;12.80;60.80;;;;;;5105457;28;20024;-72
2022/03/26 00:48:52;;;;;;;41.97;17.80;;;12.90;61.00;;;;;;5102165;28;20028;-72
2022/03/26 00:51:18;;;;;;;44.55;19.20;;;12.90;60.90;;;;;;5115484;27;20031;-72
2022/03/26 00:53:45;;;;;;;43.08;17.58;;;12.90;60.80;;;;;;5101226;28;20020;-72
2022/03/26 00:56:12;;;;;;;43.22;17.30;;;12.80;60.90;;;;;;5105486;28;20127;-72
2022/03/26 00:58:38;;;;;;;47.95;19.45;;;12.80;61.00;;;;;;5101472;28;20031;-72
2022/03/26 01:01:03;;;;;;;47.53;17.70;;;12.80;60.80;;;;;;5100302;28;20035;-71
2022/03/26 01:03:29;;;;;;;39.45;17.55;;;12.80;60.90;;;;;;5099644;28;20028;-72
2022/03/26 01:05:55;;;;;;;47.33;18.55;;;12.80;60.80;;;;;;5106762;28;20484;-72
2022/03/26 01:08:20;;;;;;;43.85;16.77;;;12.80;61.00;;;;;;5098796;28;20774;-72
2022/03/26 01:10:46;;;;;;;49.53;19.17;;;12.80;60.90;;;;;;5098348;28;20028;-71
2022/03/26 01:13:13;;;;;;;49.35;19.20;;;12.80;61.20;;;;;;5100673;28;20030;-72
2022/03/26 01:15:38;;;;;;;45.05;18.15;;;12.80;61.30;;;;;;5100006;28;20040;-72
2022/03/26 01:18:05;;;;;;;44.65;17.65;;;12.80;61.30;;;;;;5099583;28;20089;-71
2022/03/26 01:20:31;;;;;;;43.00;15.98;;;12.80;61.30;;;;;;5108045;27;20107;-71
2022/03/26 01:22:57;;;;;;;41.08;17.17;;;12.80;61.20;;;;;;5101473;28;20455;-72
2022/03/26 01:25:24;;;;;;;46.53;17.25;;;12.80;61.10;;;;;;5101300;28;20024;-72
2022/03/26 01:27:50;;;;;;;38.20;17.05;;;12.80;61.20;;;;;;5104811;28;20023;-71
2022/03/26 01:30:15;;;;;;;45.83;18.23;;;12.80;61.20;;;;;;5108630;28;20028;-72
2022/03/26 01:32:43;;;;;;;38.95;17.42;;;12.80;61.20;;;;;;5101596;28;20027;-72
2022/03/26 01:37:40;;;;;;;40.13;17.85;;;12.80;61.20;;;;;;5101284;22;20470;-76
2022/03/26 01:40:07;;;;;;;42.45;16.17;;;12.70;61.10;;;;;;5084454;28;20053;-77
2022/03/26 01:42:33;;;;;;;41.53;17.50;;;12.80;61.20;;;;;;5092196;28;20029;-77
2022/03/26 01:44:58;;;;;;;43.72;17.20;;;12.80;61.20;;;;;;5092550;28;20021;-77
2022/03/26 01:47:24;;;;;;;44.63;18.10;;;12.80;61.30;;;;;;5092473;28;20090;-76
2022/03/26 01:49:53;;;;;;;41.92;17.25;;;12.80;61.30;;;;;;5092851;28;20088;-76
2022/03/26 01:52:19;;;;;;;48.70;18.25;;;12.70;61.20;;;;;;5104999;28;20114;-76
2022/03/26 01:54:44;;;;;;;46.97;17.27;;;12.70;61.20;;;;;;5092849;28;20099;-77
2022/03/26 01:57:11;;;;;;;45.90;16.35;;;12.70;61.10;;;;;;5092216;28;20028;-77
2022/03/26 01:59:38;;;;;;;42.53;17.55;;;12.70;61.20;;;;;;5092711;28;20074;-77
2022/03/26 02:02:05;;;;;;;47.05;18.42;;;12.70;61.20;;;;;;5092788;28;20451;-77
2022/03/26 02:04:31;;;;;;;45.65;18.35;;;12.70;61.50;;;;;;5092603;28;20407;-76
2022/03/26 02:06:56;;;;;;;44.90;17.88;;;12.70;61.40;;;;;;5091203;28;20283;-77
2022/03/26 02:09:22;;;;;;;43.58;17.27;;;12.70;61.60;;;;;;5092658;28;20461;-76
2022/03/26 02:11:48;;;;;;;43.83;16.60;;;12.70;61.60;;;;;;5092480;28;20028;-77
2022/03/26 02:14:14;;;;;;;42.40;16.25;;;12.70;61.60;;;;;;5092137;28;20051;-76
2022/03/26 02:16:42;;;;;;;41.83;16.10;;;12.70;61.80;;;;;;5092429;28;20028;-76
2022/03/26 02:19:08;;;;;;;37.28;15.50;;;12.70;61.70;;;;;;5092333;28;20028;-77
2022/03/26 02:21:36;;;;;;;48.80;17.05;;;12.70;61.90;;;;;;5096227;28;20035;-76
2022/03/26 02:24:03;;;;;;;37.83;16.83;;;12.70;62.00;;;;;;5112769;28;20023;-76
2022/03/26 02:26:29;;;;;;;40.03;16.27;;;12.70;61.90;;;;;;5112800;28;20084;-77
2022/03/26 02:28:57;;;;;;;39.72;16.90;;;12.70;62.00;;;;;;5111946;28;20016;-76
2022/03/26 02:31:26;;;;;;;40.47;14.93;;;12.60;61.90;;;;;;5112023;28;20511;-76
2022/03/26 02:33:53;;;;;;;40.95;15.90;;;12.70;62.20;;;;;;5112944;28;20027;-77
2022/03/26 02:36:18;;;;;;;45.45;16.77;;;12.70;62.00;;;;;;5114240;28;20122;-76
2022/03/26 02:38:44;;;;;;;46.40;17.02;;;12.60;61.90;;;;;;5101921;28;20115;-76
2022/03/26 02:41:10;;;;;;;39.50;15.90;;;12.60;61.90;;;;;;5091406;28;20469;-76
2022/03/26 02:43:36;;;;;;;50.10;17.33;;;12.70;62.40;;;;;;5111722;28;20028;-77
2022/03/26 02:46:03;;;;;;;43.00;16.83;;;12.70;62.30;;;;;;5112720;28;20020;-76
2022/03/26 02:48:29;;;;;;;39.65;16.40;;;12.60;62.30;;;;;;5112423;28;20422;-76
2022/03/26 02:50:55;;;;;;;43.75;16.90;;;12.60;62.50;;;;;;5112262;28;20073;-76
2022/03/26 02:53:20;;;;;;;47.78;16.70;;;12.60;62.30;;;;;;5102794;28;20016;-76
2022/03/26 02:55:47;;;;;;;41.90;16.08;;;12.60;62.40;;;;;;5091411;28;20036;-77
2022/03/26 02:58:12;;;;;;;40.25;15.65;;;12.60;62.60;;;;;;5092588;28;20051;-77
2022/03/26 03:00:38;;;;;;;43.53;17.58;;;12.60;62.30;;;;;;5091592;28;20075;-77
2022/03/26 03:03:06;;;;;;;39.78;15.93;;;12.60;62.30;;;;;;5091189;28;20031;-77
2022/03/26 03:05:33;;;;;;;43.47;16.85;;;12.60;62.50;;;;;;5091490;28;20027;-77
2022/03/26 03:08:00;;;;;;;43.83;17.38;;;12.60;62.60;;;;;;5104048;28;20043;-77
2022/03/26 03:10:27;;;;;;;39.35;16.27;;;12.60;62.70;;;;;;5111590;28;20081;-77
2022/03/26 03:12:53;;;;;;;44.67;16.75;;;12.60;62.50;;;;;;5111390;28;20485;-76
2022/03/26 03:15:19;;;;;;;44.47;17.63;;;12.60;62.80;;;;;;5091751;28;20043;-76
2022/03/26 03:17:47;;;;;;;42.25;17.23;;;12.60;62.90;;;;;;5075339;28;20063;-79
2022/03/26 03:20:14;;;;;;;41.72;16.60;;;12.60;63.00;;;;;;5071247;28;20028;-76
2022/03/26 03:22:40;;;;;;;39.33;15.68;;;12.60;62.80;;;;;;5090298;28;20031;-77
2022/03/26 03:25:06;;;;;;;36.53;15.30;;;12.60;62.80;;;;;;5111139;28;20031;-76
2022/03/26 03:27:32;;;;;;;46.45;17.52;;;12.60;62.90;;;;;;5111387;28;20020;-76
2022/03/26 03:29:58;;;;;;;42.28;15.70;;;12.60;63.00;;;;;;5111298;28;20027;-76
2022/03/26 03:32:24;;;;;;;48.78;16.85;;;12.60;63.10;;;;;;5092672;28;20379;-77
2022/03/26 03:34:51;;;;;;;41.67;17.35;;;12.60;63.00;;;;;;5110984;28;20031;-76
2022/03/26 03:37:17;;;;;;;45.08;16.58;;;12.60;63.00;;;;;;5093106;28;20271;-76
2022/03/26 03:39:43;;;;;;;44.78;16.52;;;12.50;62.90;;;;;;5110455;28;20149;-76
2022/03/26 03:42:08;;;;;;;45.40;18.35;;;12.60;63.10;;;;;;5109855;28;20111;-77
2022/03/26 03:44:34;;;;;;;40.20;16.08;;;12.60;63.30;;;;;;5110596;28;20032;-76
2022/03/26 03:47:00;;;;;;;44.72;17.00;;;12.50;63.10;;;;;;5110209;28;20294;-76
2022/03/26 03:49:26;;;;;;;46.05;16.80;;;12.50;63.50;;;;;;5110663;28;20027;-76
2022/03/26 03:51:52;;;;;;;43.78;16.17;;;12.60;63.20;;;;;;5109501;28;20328;-77
2022/03/26 03:54:21;;;;;;;41.78;16.73;;;12.50;63.40;;;;;;5093630;28;20048;-77
2022/03/26 03:56:47;;;;;;;43.38;15.90;;;12.50;63.30;;;;;;5091625;28;20035;-77
2022/03/26 03:59:12;;;;;;;39.60;16.25;;;12.60;63.30;;;;;;5092975;28;20469;-76
2022/03/26 04:01:38;;;;;;;43.40;16.70;;;12.50;63.30;;;;;;5089418;28;20024;-76
2022/03/26 04:04:04;;;;;;;45.00;17.95;;;12.50;63.30;;;;;;5090110;28;20035;-77
2022/03/26 04:06:30;;;;;;;43.17;16.35;;;12.50;63.30;;;;;;5089224;28;20081;-76
2022/03/26 04:08:55;;;;;;;43.17;16.23;;;12.50;63.40;;;;;;5105988;28;20024;-76
2022/03/26 04:11:21;;;;;;;40.65;15.50;;;12.50;63.30;;;;;;5109514;28;20111;-76
2022/03/26 04:13:47;;;;;;;50.58;16.48;;;12.50;63.30;;;;;;5102771;28;20024;-78
2022/03/26 04:16:13;;;;;;;43.95;17.05;;;12.50;63.50;;;;;;5089760;28;20085;-76
2022/03/26 04:18:39;;;;;;;50.97;16.52;;;12.50;63.30;;;;;;5089021;28;20028;-76
2022/03/26 04:21:04;;;;;;;40.45;16.83;;;12.50;63.50;;;;;;5090294;28;20089;-76
2022/03/26 04:23:30;;;;;;;42.28;16.77;;;12.50;63.40;;;;;;5100539;28;20103;-77
2022/03/26 04:25:56;;;;;;;34.97;15.23;;;12.50;63.50;;;;;;5109826;28;20015;-76
2022/03/26 04:28:21;;;;;;;42.05;16.23;;;12.50;63.60;;;;;;5109496;28;20020;-77
2022/03/26 04:30:47;;;;;;;46.03;16.92;;;12.50;63.50;;;;;;5110306;28;20488;-77
2022/03/26 04:33:13;;;;;;;40.15;14.48;;;12.50;63.30;;;;;;5110091;28;20076;-76
2022/03/26 04:35:38;;;;;;;38.97;15.65;;;12.50;63.40;;;;;;5109796;28;20089;-76
2022/03/26 04:38:04;;;;;;;43.83;16.00;;;12.50;63.70;;;;;;5108417;28;20382;-77
2022/03/26 04:40:30;;;;;;;51.17;17.42;;;12.50;63.80;;;;;;5110360;28;20054;-77
2022/03/26 04:42:56;;;;;;;40.13;16.30;;;12.50;63.60;;;;;;5109154;28;20393;-77
2022/03/26 04:45:23;;;;;;;41.97;15.68;;;12.50;63.80;;;;;;5110938;28;20035;-77
2022/03/26 04:47:49;;;;;;;50.50;17.50;;;12.50;63.80;;;;;;5109184;28;20151;-77
2022/03/26 04:50:15;;;;;;;46.65;17.42;;;12.50;63.90;;;;;;5109583;28;20477;-77
2022/03/26 04:52:41;;;;;;;47.40;16.30;;;12.50;63.90;;;;;;5094892;28;20038;-78
2022/03/26 04:55:08;;;;;;;38.30;15.82;;;12.50;64.00;;;;;;5090935;28;20020;-77
2022/03/26 04:57:42;;;;;;;43.67;16.38;;;12.50;63.80;;;;;;5089302;28;20028;-77
2022/03/26 05:00:11;;;;;;;44.65;16.60;;;12.50;64.00;;;;;;5089674;28;20026;-77
2022/03/26 05:02:38;;;;;;;43.28;16.13;;;12.50;64.00;;;;;;5070925;28;20024;-77
2022/03/26 05:05:05;;;;;;;42.55;16.35;;;12.50;64.00;;;;;;5089721;28;20031;-77
2022/03/26 05:07:46;;;;;;;44.95;16.27;;;12.50;64.00;;;;;;5088939;28;20484;-78
2022/03/26 05:10:16;;;;;;;43.45;15.55;;;12.50;64.30;;;;;;5104303;28;20055;-77
2022/03/26 05:12:43;;;;;;;44.45;16.73;;;12.50;64.50;;;;;;5086105;28;20054;-77
2022/03/26 05:15:10;;;;;;;45.78;17.30;;;12.50;64.30;;;;;;5089389;28;20020;-77
2022/03/26 05:17:36;;;;;;;39.30;16.02;;;12.50;64.70;;;;;;5089444;28;20530;-78
2022/03/26 05:20:03;;;;;;;45.95;16.73;;;12.50;64.10;;;;;;5089073;28;20024;-77
2022/03/26 05:22:29;;;;;;;39.42;16.48;;;12.50;63.80;;;;;;5088214;28;20077;-77
2022/03/26 05:24:54;;;;;;;41.97;16.10;;;12.50;63.90;;;;;;5089626;28;20422;-77
2022/03/26 05:30:43;;;;;;;42.70;16.02;;;12.50;63.90;;;;;;5092524;28;20070;-77
2022/03/26 05:33:08;;;;;;;40.10;14.90;;;12.50;63.90;;;;;;5090976;28;20016;-77
2022/03/26 05:35:34;;;;;;;41.13;16.42;;;12.40;63.80;;;;;;5090757;28;20064;-77
2022/03/26 05:38:13;;;;;;;35.63;14.98;;;12.50;64.70;;;;;;5091710;28;20031;-77
2022/03/26 05:40:40;;;;;;;38.72;16.25;;;12.50;65.00;;;;;;5090200;28;20040;-77
2022/03/26 05:46:29;;;;;;;38.88;15.68;;;12.40;64.00;;;;;;5090966;28;20152;-77
2022/03/26 05:48:54;;;;;;;40.58;14.48;;;12.50;64.10;;;;;;5069814;28;20021;-77
2022/03/26 05:51:20;;;;;;;34.15;13.02;;;12.50;64.30;;;;;;5075507;28;20515;-78
2022/03/26 05:53:49;;;;;;;45.85;16.48;;;12.50;64.40;;;;;;5081098;28;20039;-77
2022/03/26 05:56:15;;;;;;;39.85;15.27;;;12.50;64.40;;;;;;5111264;28;20027;-77
2022/03/26 05:58:41;;;;;;;34.10;13.85;;;12.50;65.10;;;;;;5109306;28;20440;-77
2022/03/26 06:01:06;;;;;;;37.80;15.25;;;12.40;64.00;;;;;;5109415;28;20204;-77
2022/03/26 06:03:32;;;;;;;50.97;16.90;;;12.50;65.10;;;;;;5108958;28;20119;-77
2022/03/26 06:05:58;;;;;;;41.83;15.52;;;12.50;64.00;;;;;;5111759;28;20046;-79
2022/03/26 06:08:24;;;;;;;39.55;15.85;;;12.50;64.30;;;;;;5092273;28;20068;-77
2022/03/26 06:10:49;;;;;;;45.30;16.05;;;12.40;64.10;;;;;;5113303;28;20055;-78
2022/03/26 06:13:15;;;;;;;45.90;16.17;;;12.40;65.40;;;;;;5092271;28;20476;-77
2022/03/26 06:15:42;;;;;;;41.05;15.70;;;12.50;64.90;;;;;;5092032;28;20024;-77
2022/03/26 06:18:09;;;;;;;39.63;15.40;;;12.50;64.80;;;;;;5092625;28;20027;-77
2022/03/26 06:20:35;;;;;;;45.40;17.05;;;12.50;64.40;;;;;;5092653;28;20021;-77
2022/03/26 06:23:01;;;;;;;34.60;16.02;;;12.50;65.40;;;;;;5091458;28;20092;-78
2022/03/26 06:25:26;;;;;;;43.10;16.20;;;12.50;65.80;;;;;;5111543;28;20055;-77
2022/03/26 06:27:52;;;;;;;43.10;15.98;;;12.60;66.00;;;;;;5112951;28;20052;-78
2022/03/26 06:30:17;;;;;;;45.60;15.35;;;12.60;66.00;;;;;;5093774;28;20530;-78
2022/03/26 06:32:43;;;;;;;39.38;16.55;;;12.70;66.20;;;;;;5075646;28;20025;-78
2022/03/26 06:35:09;;;;;;;44.50;16.52;;;12.70;66.40;;;;;;5071423;28;20028;-79
2022/03/26 06:37:35;;;;;;;44.80;17.35;;;12.70;66.50;;;;;;5071414;28;20174;-78
2022/03/26 06:40:01;;;;;;;43.70;15.00;;;12.70;66.50;;;;;;5087622;28;20127;-78
2022/03/26 06:42:27;;;;;;;41.55;15.63;;;12.70;66.50;;;;;;5073558;28;20496;-78
2022/03/26 06:44:59;;;;;;;54.13;15.80;;;12.70;66.40;;;;;;5095558;28;20016;-78
2022/03/26 06:47:26;;;;;;;47.22;17.75;;;12.80;66.70;;;;;;5092309;28;20041;-78
2022/03/26 06:49:52;;;;;;;54.63;14.88;;;12.80;66.90;;;;;;5072996;28;20032;-79
2022/03/26 06:52:18;;;;;;;42.67;16.73;;;12.80;67.10;;;;;;5091663;28;20026;-77
2022/03/26 06:54:43;;;;;;;36.13;15.15;;;12.80;67.60;;;;;;5102529;28;20027;-77
2022/03/26 06:57:09;;;;;;;41.53;16.17;;;12.90;68.10;;;;;;5106603;28;20032;-78
2022/03/26 06:59:35;;;;;;;38.58;14.95;;;12.90;68.70;;;;;;5091137;28;20016;-78
2022/03/26 07:02:01;;;;;;;42.90;16.23;;;12.90;68.50;;;;;;5090402;28;20028;-77
2022/03/26 07:04:27;;;;;;;39.42;15.55;;;12.90;68.20;;;;;;5091075;28;20030;-78
2022/03/26 07:06:52;;;;;;;38.40;16.33;;;12.90;68.40;;;;;;5092287;28;20497;-78
2022/03/26 07:09:18;;;;;;;41.00;16.58;;;13.00;68.70;;;;;;5098547;28;20055;-78
2022/03/26 07:11:43;;;;;;;37.35;15.88;;;13.00;69.10;;;;;;5111759;28;20030;-77
2022/03/26 07:14:09;;;;;;;43.75;15.77;;;13.00;69.50;;;;;;5102804;28;20046;-78
2022/03/26 07:16:35;;;;;;;41.08;15.75;;;13.00;69.50;;;;;;5091485;28;20086;-78
2022/03/26 07:19:00;;;;;;;44.53;16.75;;;13.00;69.90;;;;;;5073031;28;20023;-79
2022/03/26 07:21:26;;;;;;;39.53;15.43;;;13.10;69.80;;;;;;5073094;28;20496;-78
2022/03/26 07:23:52;;;;;;;41.75;15.63;;;13.10;70.00;;;;;;5093122;28;20050;-77
2022/03/26 07:26:18;;;;;;;47.10;17.02;;;13.10;70.50;;;;;;5093718;28;20020;-77
2022/03/26 07:28:44;;;;;;;34.13;15.07;;;13.10;66.80;;;;;;5106689;28;20020;-78
2022/03/26 07:31:09;;;;;;;42.28;17.02;;;12.70;57.80;;;;;;5091307;28;20051;-76
2022/03/26 07:33:35;;;;;;;41.70;16.30;;;12.70;59.20;;;;;;5074746;28;20024;-77
2022/03/26 07:36:01;;;;;;;44.45;16.30;;;12.90;59.60;;;;;;5052335;28;20481;-77
2022/03/26 07:38:26;;;;;;;42.20;17.00;;;13.00;60.80;;;;;;5070871;28;20115;-77
2022/03/26 07:40:53;;;;;;;43.65;17.67;;;13.00;61.90;;;;;;5107132;28;20031;-77
2022/03/26 07:43:18;;;;;;;46.92;17.73;;;13.10;62.90;;;;;;5111447;28;20038;-77
2022/03/26 07:45:44;;;;;;;53.33;18.08;;;13.10;63.70;;;;;;5111916;28;20012;-77
2022/03/26 07:48:10;;;;;;;57.28;17.55;;;13.20;64.30;;;;;;5111354;28;20020;-78
2022/03/26 07:50:35;;;;;;;48.10;18.15;;;13.20;64.40;;;;;;5111071;28;20378;-77
2022/03/26 07:53:01;;;;;;;47.75;17.25;;;13.20;64.90;;;;;;5105080;28;20047;-76
2022/03/26 07:55:27;;;;;;;46.75;17.27;;;13.30;65.50;;;;;;5090299;28;20036;-77
2022/03/26 07:57:53;;;;;;;37.55;15.80;;;13.30;66.20;;;;;;5090790;28;20519;-77
2022/03/26 08:00:19;;;;;;;41.50;15.98;;;13.30;65.60;;;;;;5090905;28;20016;-77
2022/03/26 08:02:45;;;;;;;44.63;17.70;;;13.30;65.90;;;;;;5090030;28;20060;-78
2022/03/26 08:05:11;;;;;;;51.03;17.50;;;13.30;66.50;;;;;;5090568;28;20117;-77
2022/03/26 08:07:36;;;;;;;48.40;19.30;;;13.30;66.60;;;;;;5082103;28;20064;-77
2022/03/26 08:12:29;;;;;;;43.80;19.50;;;13.30;65.70;;;;;;5110681;22;20131;-75
2022/03/26 08:14:54;;;;;;;42.35;18.25;;;13.40;66.20;;;;;;5090816;28;20111;-75
2022/03/26 08:17:20;;;;;;;45.65;18.45;;;13.40;66.20;;;;;;5090042;28;20028;-75
2022/03/26 08:19:47;;;;;;;50.40;19.90;;;13.40;66.90;;;;;;5090915;28;20353;-75
2022/03/26 08:22:12;;;;;;;46.45;17.77;;;13.40;66.50;;;;;;5089927;28;20380;-75
2022/03/26 08:24:38;;;;;;;47.70;17.83;;;13.40;66.20;;;;;;5090037;28;20107;-75
2022/03/26 08:27:04;;;;;;;47.65;19.40;;;13.40;66.80;;;;;;5070067;28;20044;-75
2022/03/26 08:29:29;;;;;;;43.78;18.48;;;13.40;66.10;;;;;;5070143;28;20032;-75
2022/03/26 08:31:55;;;;;;;45.13;17.25;;;13.40;65.70;;;;;;5069679;28;20063;-75
2022/03/26 08:34:21;;;;;;;47.28;18.58;;;13.40;66.00;;;;;;5069773;28;20100;-75
2022/03/26 08:36:46;;;;;;;41.78;17.55;;;13.40;66.70;;;;;;5069392;28;20036;-75
2022/03/26 08:39:13;;;;;;;44.95;17.45;;;13.40;66.60;;;;;;5090317;28;20024;-75
2022/03/26 08:41:38;;;;;;;47.20;18.55;;;13.40;66.70;;;;;;5086688;28;20036;-75
2022/03/26 08:44:04;;;;;;;51.60;17.20;;;13.40;66.60;;;;;;5097791;28;20035;-75
2022/03/26 08:46:30;;;;;;;45.10;18.30;;;13.30;66.90;;;;;;5081200;28;20040;-75
2022/03/26 08:48:58;;;;;;;51.85;20.60;;;13.40;66.80;;;;;;5085593;28;20020;-75
2022/03/26 08:51:23;;;;;;;51.33;19.40;;;13.40;66.80;;;;;;5087758;28;20359;-75
2022/03/26 08:53:49;;;;;;;46.08;17.75;;;13.40;66.90;;;;;;5089967;28;20050;-75
2022/03/26 08:56:15;;;;;;;57.28;19.40;;;13.40;66.40;;;;;;5077622;28;20047;-75
2022/03/26 08:58:40;;;;;;;50.78;19.55;;;13.40;67.30;;;;;;5069271;28;20037;-75
2022/03/26 09:01:07;;;;;;;48.03;20.80;;;13.40;68.30;;;;;;5069467;28;20497;-75
2022/03/26 09:03:37;;;;;;;45.20;16.80;;;13.40;68.40;;;;;;5068676;28;20397;-74
2022/03/26 09:06:06;;;;;;;48.75;21.63;;;13.40;69.00;;;;;;5069678;28;20060;-75
2022/03/26 09:08:32;;;;;;;53.60;18.65;;;13.40;67.60;;;;;;5089950;28;20187;-76
2022/03/26 09:10:58;;;;;;;51.28;19.75;;;13.40;68.70;;;;;;5085021;28;20043;-75
2022/03/26 09:13:24;;;;;;;47.85;18.98;;;13.40;68.80;;;;;;5069075;28;20013;-75
2022/03/26 09:15:50;;;;;;;41.63;17.60;;;13.40;69.10;;;;;;5069695;28;20036;-75
2022/03/26 09:18:15;;;;;;;49.10;18.88;;;13.40;67.70;;;;;;5090072;28;20020;-75
2022/03/26 09:20:41;;;;;;;50.03;20.08;;;13.40;66.90;;;;;;5089003;28;20036;-75
2022/03/26 09:23:07;;;;;;;55.03;18.42;;;13.50;70.10;;;;;;5077193;28;20215;-75
2022/03/26 09:25:34;;;;;;;54.75;20.98;;;13.50;69.40;;;;;;5083893;28;20028;-75
2022/03/26 09:28:00;;;;;;;54.63;19.60;;;13.50;69.30;;;;;;5069425;28;20029;-75
2022/03/26 09:30:26;;;;;;;48.53;18.60;;;13.50;69.70;;;;;;5072706;28;20035;-74
2022/03/26 09:32:51;;;;;;;43.08;19.25;;;13.50;67.70;;;;;;5072849;28;20032;-74
2022/03/26 09:35:17;;;;;;;56.70;20.55;;;13.50;68.90;;;;;;5081187;28;20503;-74
2022/03/26 09:37:44;;;;;;;50.20;18.98;;;13.50;70.20;;;;;;5085334;28;20025;-75
2022/03/26 09:40:11;;;;;;;57.35;20.40;;;13.60;69.40;;;;;;5070847;28;20020;-75
2022/03/26 09:42:39;;;;;;;52.67;21.83;;;13.60;68.20;;;;;;5091650;28;20103;-74
2022/03/26 09:45:06;;;;;;;49.10;19.27;;;13.60;68.10;;;;;;5092748;28;20035;-75
2022/03/26 09:47:33;;;;;;;46.30;20.10;;;13.60;69.20;;;;;;5093229;28;20117;-74
2022/03/26 09:50:00;;;;;;;46.20;18.85;;;13.60;69.40;;;;;;5074824;28;20081;-73
2022/03/26 09:52:31;;;;;;;50.72;21.92;;;13.60;68.40;;;;;;5095827;28;20015;-80
2022/03/26 09:54:58;;;;;;;46.55;20.08;;;13.60;57.00;;;;;;5092880;28;20043;-77
2022/03/26 09:57:23;;;;;;;51.50;21.35;;;13.60;54.10;;;;;;5075737;28;20033;-77
2022/03/26 09:59:49;;;;;;;52.00;20.23;;;13.60;51.60;;;;;;5076890;28;20373;-78
2022/03/26 10:02:18;;;;;;;57.83;20.88;;;13.50;50.30;;;;;;5081035;28;20024;-77
2022/03/26 10:04:44;;;;;;;52.88;22.70;;;13.50;50.00;;;;;;5080890;28;20028;-78
2022/03/26 10:07:10;;;;;;;51.95;19.95;;;13.50;50.50;;;;;;5076915;28;20035;-77
2022/03/26 10:09:41;;;;;;;48.10;20.45;;;13.60;50.20;;;;;;5072291;28;20610;-78
2022/03/26 10:12:12;;;;;;;56.70;19.42;;;13.70;50.50;;;;;;5083277;28;20031;-76
2022/03/26 10:14:59;;;;;;;53.83;20.23;;;13.80;50.30;;;;;;5087195;28;20043;-77
2022/03/26 10:17:34;;;;;;;46.38;20.30;;;13.80;49.60;;;;;;5081327;28;20032;-78
2022/03/26 10:20:12;;;;;;;48.67;19.25;;;13.90;49.00;;;;;;5081127;28;20039;-77
2022/03/26 10:22:48;;;;;;;51.95;20.38;;;14.00;49.60;;;;;;5079855;28;20450;-78
2022/03/26 10:25:33;;;;;;;59.65;22.33;;;13.90;49.70;;;;;;5077454;28;20063;-78
2022/03/26 10:27:59;;;;;;;51.75;20.90;;;13.90;49.40;;;;;;5087946;28;20024;-77
2022/03/26 10:33:28;;;;;;;50.67;19.15;;;14.00;49.20;;;;;;5084594;28;20043;-77
2022/03/26 10:36:01;;;;;;;46.63;19.08;;;14.10;49.70;;;;;;5079882;28;20028;-77
2022/03/26 10:38:31;;;;;;;51.70;19.45;;;14.20;49.30;;;;;;5080409;28;20035;-78
2022/03/26 10:41:03;;;;;;;43.75;18.52;;;14.20;50.00;;;;;;5079692;28;20592;-78
2022/03/26 10:43:28;;;;;;;46.35;17.67;;;14.30;48.50;;;;;;5081291;28;20023;-75
2022/03/26 10:45:57;;;;;;;63.45;22.27;;;14.30;49.80;;;;;;5080754;28;20499;-78
2022/03/26 10:48:31;;;;;;;52.88;22.83;;;14.40;49.00;;;;;;5082904;28;20020;-77
2022/03/26 10:51:15;;;;;;;48.53;21.23;;;14.40;48.10;;;;;;5081752;28;20531;-78
2022/03/26 10:53:49;;;;;;;58.72;22.02;;;14.40;47.70;;;;;;5079578;28;20020;-78
2022/03/26 10:56:15;;;;;;;60.80;22.10;;;14.50;47.50;;;;;;5084067;28;20044;-78
2022/03/26 10:58:43;;;;;;;50.45;21.75;;;14.60;47.70;;;;;;5071688;28;20033;-78
2022/03/26 11:01:09;;;;;;;48.70;18.95;;;14.60;48.00;;;;;;5083629;28;20051;-78
2022/03/26 11:03:36;;;;;;;48.05;20.20;;;14.60;48.40;;;;;;5083277;28;20020;-78
2022/03/26 11:06:06;;;;;;;61.45;24.70;;;14.70;47.30;;;;;;5089797;28;20020;-77
2022/03/26 11:08:34;;;;;;;56.22;20.42;;;14.70;47.90;;;;;;5088229;28;20020;-78
2022/03/26 11:11:05;;;;;;;53.58;23.05;;;14.70;47.70;;;;;;5078744;28;20035;-77
2022/03/26 11:13:31;;;;;;;;;;;14.80;47.30;;;;;;5079692;28;20020;-77
2022/03/26 11:16:04;;;;;;;52.10;22.67;;;14.80;46.80;;;;;;5090651;28;19916;-77
2022/03/26 11:18:33;;;;;;;50.33;20.20;;;14.90;46.40;;;;;;5076676;28;20108;-79
2022/03/26 11:21:30;;;;;;;50.70;23.40;;;14.90;46.50;;;;;;5081268;28;20489;-78
2022/03/26 11:24:11;;;;;;;45.47;21.10;;;14.90;46.20;;;;;;5088556;28;20024;-77
2022/03/26 11:27:02;;;;;;;54.53;22.00;;;15.00;45.30;;;;;;5082088;28;20024;-78
2022/03/26 11:29:45;;;;;;;52.92;20.45;;;15.00;45.00;;;;;;5078730;28;20044;-77
2022/03/26 11:32:24;;;;;;;52.92;24.00;;;15.00;44.80;;;;;;5080144;28;20021;-74
2022/03/26 11:35:01;;;;;;;51.92;21.02;;;15.00;45.30;;;;;;5078529;28;20020;-77
2022/03/26 11:37:26;;;;;;;41.65;20.17;;;15.00;45.80;;;;;;5080043;28;20556;-77
2022/03/26 11:39:53;;;;;;;44.53;21.17;;;15.10;45.50;;;;;;5078005;28;20099;-76
2022/03/26 11:42:37;;;;;;;45.20;20.35;;;15.10;44.80;;;;;;5080990;28;20029;-76
2022/03/26 11:51:16;;;;;;;46.22;21.88;;;15.30;45.10;;;;;;5077128;28;19915;-75
2022/03/26 11:53:47;;;;;;;58.50;24.42;;;15.40;44.80;;;;;;5077187;28;20027;-75
2022/03/26 11:56:24;;;;;;;47.60;19.42;;;15.40;45.30;;;;;;5080197;28;20024;-76
2022/03/26 11:59:08;;;;;;;52.10;21.10;;;15.40;44.70;;;;;;5068792;28;20033;-76
2022/03/26 12:01:35;;;;;;;42.15;19.33;;;15.70;43.70;;;;;;5077812;28;20047;-75
2022/03/26 12:04:13;;;;;;;43.72;18.73;;;15.60;43.40;;;;;;5079334;28;20045;-75
2022/03/26 12:07:13;;;;;;;53.40;21.23;;;15.60;43.70;;;;;;5077020;28;20631;-75
2022/03/26 12:09:39;;;;;;;56.27;22.60;;;15.60;43.30;;;;;;5080808;28;20067;-75
2022/03/26 12:12:05;;;;;;;49.80;20.92;;;15.50;42.60;;;;;;5076590;28;20040;-75
2022/03/26 12:14:31;;;;;;;43.17;19.02;;;15.40;43.30;;;;;;5059937;28;20103;-75
2022/03/26 12:16:57;;;;;;;39.95;17.15;;;15.50;43.10;;;;;;5084333;28;20028;-75
2022/03/26 12:19:39;;;;;;;49.85;20.40;;;15.60;43.40;;;;;;5080705;28;20513;-75
2022/03/26 12:22:28;;;;;;;54.35;24.48;;;15.70;43.10;;;;;;5072474;28;20032;-75
2022/03/26 12:24:58;;;;;;;49.88;21.40;;;15.70;43.80;;;;;;5073536;28;20389;-75
2022/03/26 12:27:25;;;;;;;50.13;20.17;;;15.80;42.30;;;;;;5068093;28;20428;-76
2022/03/26 12:29:55;;;;;;;44.13;19.88;;;15.60;44.20;;;;;;5077047;28;20102;-76
2022/03/26 12:32:21;;;;;;;48.50;21.58;;;15.60;44.20;;;;;;5080585;28;20059;-79
2022/03/26 12:35:02;;;;;;;48.08;19.52;;;15.70;43.80;;;;;;5076782;28;20036;-78
2022/03/26 12:37:28;;;;;;;48.58;20.00;;;15.70;42.90;;;;;;5080228;28;20044;-78
2022/03/26 12:39:55;;;;;;;46.17;20.20;;;15.60;44.00;;;;;;5080691;28;20077;-78
2022/03/26 12:42:23;;;;;;;49.42;20.40;;;15.70;45.50;;;;;;5079952;28;20028;-77
2022/03/26 12:44:49;;;;;;;49.95;19.02;;;15.80;43.60;;;;;;5080704;28;20028;-78
2022/03/26 12:47:16;;;;;;;48.88;19.88;;;15.80;43.30;;;;;;5077189;28;20020;-77
2022/03/26 12:49:43;;;;;;;46.80;18.88;;;15.80;42.20;;;;;;5076934;28;20170;-76